Latest Coastal Weather Observations for Frankston

IDV60701

Issued at 8:12 am EST Friday 23 June 2017 (issued every 10 minutes, with the page automatically refreshed every 10 minutes)

About coastal observations | Map of coastal stations | Coastal observations for VIC | Marine services | Other Formats
Station Details ID: 086371 Name: FRANKSTON AWS Lat: -38.15 Lon: 145.12 Height: 6.0 m
Data from the previous 72 hours. | See also: Recent months at Frankston
Date/Time
EST
Temp
°C
Wind Pressure Rain since
9am
mm
Weather Cloud Vis
km
Sea
Height
m
Swell
Dir  Spd
kts
Gust
kts
hPa Trend Height
m
Period
s
Dir
23/08:00am 9.4 NNE 10 15 - - - - - - - - - -
23/07:30am 9.0 NNE 11 15 - - - - - - - - - -
23/07:00am 9.9 N 15 17 - - - - - - - - - -
23/06:30am 10.2 N 12 15 - - - - - - - - - -
23/06:00am 9.3 NE 6 9 - - - - - - - - - -
23/05:30am 10.1 NNE 9 12 - - - - - - - - - -
23/05:00am 10.3 N 11 14 - - - - - - - - - -
23/04:30am 10.4 NNE 8 12 - - - - - - - - - -
23/04:00am 10.7 N 10 14 - - - - - - - - - -
23/03:30am 10.9 N 11 13 - - - - - - - - - -
23/03:00am 11.0 N 11 13 - - - - - - - - - -
23/02:30am 10.8 NNE 8 11 - - - - - - - - - -
23/02:00am 10.9 NNE 8 13 - - - - - - - - - -
23/01:30am 11.0 NNE 7 11 - - - - - - - - - -
23/01:00am 11.0 NE 3 5 - - - - - - - - - -
23/12:30am 11.2 NE 4 7 - - - - - - - - - -
23/12:00am 11.2 ENE 2 4 - - - - - - - - - -
 
Date/Time
EST
Temp
°C
Wind Pressure Rain since
9am
mm
Weather Cloud Vis
km
Sea
Height
m
Swell
Dir  Spd
kts
Gust
kts
hPa Trend Height
m
Period
s
Dir
22/11:30pm 11.3 E 2 4 - - - - - - - - - -
22/11:00pm 11.5 ENE 3 4 - - - - - - - - - -
22/10:30pm 11.3 NE 3 6 - - - - - - - - - -
22/10:00pm 11.0 ENE 3 6 - - - - - - - - - -
22/09:30pm 10.8 NE 3 6 - - - - - - - - - -
22/09:00pm 10.7 NE 4 6 - - - - - - - - - -
22/08:30pm 10.9 NE 4 6 - - - - - - - - - -
22/08:00pm 10.8 E 2 4 - - - - - - - - - -
22/07:30pm 11.6 ENE 4 6 - - - - - - - - - -
22/07:00pm 12.0 ENE 3 5 - - - - - - - - - -
22/06:30pm 12.3 NE 4 6 - - - - - - - - - -
22/06:00pm 12.3 NNE 4 7 - - - - - - - - - -
22/05:30pm 12.5 NE 5 7 - - - - - - - - - -
22/05:00pm 12.7 NE 5 8 - - - - - - - - - -
22/04:30pm 12.9 NNE 5 9 - - - - - - - - - -
22/04:00pm 13.1 NNE 8 10 - - - - - - - - - -
22/03:30pm 12.9 NNE 3 4 - - - - - - - - - -
22/03:00pm 12.9 N 3 4 - - - - - - - - - -
22/02:30pm 12.9 N 3 4 - - - - - - - - - -
22/02:00pm 12.8 N 3 4 - - - - - - - - - -
22/01:30pm 12.6 N 4 6 - - - - - - - - - -
22/01:00pm 12.0 WNW 2 3 - - - - - - - - - -
22/12:30pm 11.5 CALM 0 0 - - - - - - - - - -
22/12:00pm 10.8 W 3 3 - - - - - - - - - -
22/11:30am 10.6 SW 1 2 - - - - - - - - - -
22/11:00am 10.2 CALM 0 0 - - - - - - - - - -
22/10:30am 10.7 CALM 0 0 - - - - - - - - - -
22/10:00am 9.6 NNW 1 2 - - - - - - - - - -
22/09:30am 9.2 N 2 3 - - - - - - - - - -
22/09:00am 9.1 N 2 4 - - - - - - - - - -
22/08:30am 9.0 ESE 1 2 - - - - - - - - - -
22/08:00am 8.9 ENE 3 5 - - - - - - - - - -
22/07:30am 9.2 E 2 3 - - - - - - - - - -
22/07:00am 9.6 NE 2 5 - - - - - - - - - -
22/06:30am 9.4 ENE 3 5 - - - - - - - - - -
22/06:00am 9.4 E 2 3 - - - - - - - - - -
22/05:30am 9.6 ENE 3 5 - - - - - - - - - -
22/05:00am 9.7 SE 2 4 - - - - - - - - - -
22/04:30am 9.7 SE 3 4 - - - - - - - - - -
22/04:00am 9.6 ESE 1 3 - - - - - - - - - -
22/03:30am 9.6 E 2 5 - - - - - - - - - -
22/03:00am 9.7 CALM 0 0 - - - - - - - - - -
22/02:30am 9.8 CALM 0 0 - - - - - - - - - -
22/02:00am 9.9 CALM 0 2 - - - - - - - - - -
22/01:30am 10.1 ENE 2 2 - - - - - - - - - -
22/01:00am 10.3 ENE 2 3 - - - - - - - - - -
22/12:30am 10.2 E 1 3 - - - - - - - - - -
22/12:00am 10.3 ESE 3 4 - - - - - - - - - -
 
Date/Time
EST
Temp
°C
Wind Pressure Rain since
9am
mm
Weather Cloud Vis
km
Sea
Height
m
Swell
Dir  Spd
kts
Gust
kts
hPa Trend Height
m
Period
s
Dir
21/11:30pm 10.4 SE 2 3 - - - - - - - - - -
21/11:00pm 10.4 SSE 2 3 - - - - - - - - - -
21/10:30pm 10.5 SSE 2 4 - - - - - - - - - -
21/10:00pm 10.5 SE 2 3 - - - - - - - - - -
21/09:30pm 10.4 E 1 3 - - - - - - - - - -
21/09:00pm 10.4 CALM 0 0 - - - - - - - - - -
21/08:30pm 10.4 E 1 2 - - - - - - - - - -
21/08:00pm 10.5 ENE 2 3 - - - - - - - - - -
21/07:30pm 10.7 ESE 2 4 - - - - - - - - - -
21/07:00pm 10.6 E 2 4 - - - - - - - - - -
21/06:30pm 10.6 SSE 2 4 - - - - - - - - - -
21/06:00pm 10.8 SSE 3 5 - - - - - - - - - -
21/05:30pm 11.5 SSE 3 4 - - - - - - - - - -
21/05:00pm 11.8 SSE 3 4 - - - - - - - - - -
21/04:30pm 12.4 SSE 4 6 - - - - - - - - - -
21/04:00pm 12.4 SSW 4 7 - - - - - - - - - -
21/03:30pm 12.6 W 5 7 - - - - - - - - - -
21/03:00pm 12.6 W 2 3 - - - - - - - - - -
21/02:30pm 12.5 NW 4 5 - - - - - - - - - -
21/02:00pm 12.3 NW 4 4 - - - - - - - - - -
21/01:30pm 11.8 W 4 5 - - - - - - - - - -
21/01:00pm 11.5 W 10 12 - - - - - - - - - -
21/12:30pm 11.7 W 3 4 - - - - - - - - - -
21/12:00pm 11.4 WSW 2 2 - - - - - - - - - -
21/11:30am 11.3 WSW 6 7 - - - - - - - - - -
21/11:00am 11.8 WNW 5 7 - - - - - - - - - -
21/10:30am 11.6 W 5 6 - - - - - - - - - -
21/10:00am 11.8 WNW 9 11 - - - - - - - - - -
21/09:30am 11.7 WNW 7 8 - - - - - - - - - -
21/09:00am 11.7 WNW 7 9 - - - - - - - - - -
21/08:30am 11.5 WNW 6 7 - - - - - - - - - -
21/08:00am 11.3 W 9 11 - - - - - - - - - -
21/07:30am 11.5 WNW 6 7 - - - - - - - - - -
21/07:00am 11.4 NW 6 7 - - - - - - - - - -
21/06:30am 11.1 NNW 6 7 - - - - - - - - - -
21/06:00am 11.1 NNW 5 7 - - - - - - - - - -
21/05:30am 10.7 NNW 5 6 - - - - - - - - - -
21/05:00am 10.8 WNW 7 8 - - - - - - - - - -
21/04:30am 11.4 W 6 9 - - - - - - - - - -
21/04:00am 12.0 NW 9 12 - - - - - - - - - -
21/03:30am 12.2 NNW 7 10 - - - - - - - - - -
21/03:00am 12.2 N 10 12 - - - - - - - - - -
21/02:30am 12.1 N 11 13 - - - - - - - - - -
21/02:00am 12.1 N 10 15 - - - - - - - - - -
21/01:30am 12.1 N 12 17 - - - - - - - - - -
21/01:00am 12.2 N 13 16 - - - - - - - - - -
21/12:30am 12.2 N 13 17 - - - - - - - - - -
21/12:00am 12.2 N 14 16 - - - - - - - - - -
 
Date/Time
EST
Temp
°C
Wind Pressure Rain since
9am
mm
Weather Cloud Vis
km
Sea
Height
m
Swell
Dir  Spd
kts
Gust
kts
hPa Trend Height
m
Period
s
Dir
20/11:30pm 12.1 N 15 18 - - - - - - - - - -
20/11:00pm 11.7 N 14 17 - - - - - - - - - -
20/10:30pm 11.8 N 14 17 - - - - - - - - - -
20/10:00pm 11.9 N 12 16 - - - - - - - - - -
20/09:30pm 11.9 N 13 15 - - - - - - - - - -
20/09:00pm 12.0 N 14 17 - - - - - - - - - -
20/08:30pm 11.9 N 13 16 - - - - - - - - - -
20/08:00pm 12.1 N 12 15 - - - - - - - - - -
20/07:30pm 12.3 N 13 16 - - - - - - - - - -
20/07:00pm 12.6 N 14 17 - - - - - - - - - -
20/06:30pm 12.9 N 13 16 - - - - - - - - - -
20/06:00pm 13.1 N 12 14 - - - - - - - - - -
20/05:30pm 13.5 N 12 15 - - - - - - - - - -
20/05:00pm 13.6 N 11 13 - - - - - - - - - -
20/04:30pm 13.9 N 13 15 - - - - - - - - - -
20/04:00pm 14.0 N 12 14 - - - - - - - - - -
20/03:30pm 14.0 N 13 15 - - - - - - - - - -
20/03:00pm 14.0 N 12 15 - - - - - - - - - -
20/02:30pm 13.9 N 13 16 - - - - - - - - - -
20/02:00pm 13.9 N 12 15 - - - - - - - - - -
20/01:30pm 13.6 N 10 13 - - - - - - - - - -
20/01:00pm 13.5 N 12 15 - - - - - - - - - -
20/12:30pm 13.3 N 13 15 - - - - - - - - - -
20/12:00pm 13.1 N 11 13 - - - - - - - - - -
20/11:30am 12.3 N 11 14 - - - - - - - - - -
20/11:00am 11.8 N 13 16 - - - - - - - - - -
20/10:30am 11.3 N 12 15 - - - - - - - - - -
20/10:00am 10.9 N 10 13 - - - - - - - - - -
20/09:30am 9.9 N 9 10 - - - - - - - - - -
20/09:00am 9.3 NNE 6 9 - - - - - - - - - -
20/08:30am 8.6 NE 5 8 - - - - - - - - - -

Other Formats:

Comma delimited format used in spreadsheet applications
http://www.bom.gov.au/fwo/IDV60701/IDV60701.94871.axf

JavaScript Object Notation format (JSON) in row-major order
http://www.bom.gov.au/fwo/IDV60701/IDV60701.94871.json